Terminal Aerodrome Forecast
Issued by NWS Corpus Christi, TX

Home | Current Version | Previous Version | Text Only | Print | Product List | Glossary On
Versions: 1 2 3 4 5 6 7 8 9 10 11 12 13 14 15 16 17 18 19 20 21 22
347
FTUS44 KCRP 210831 AAB
TAFVCT
TAF AMD
KVCT 210831Z 2109/2206 15010KT 5SM BR SCT005 SCT012 OVC040
      TEMPO 2109/2111 3SM BR BKN004 BKN012
     FM211100 16009KT 4SM BR BKN004 OVC012
      TEMPO 2111/2115 2SM BR OVC003
     FM211600 17014G18KT P6SM OVC012
     FM212100 18010G15KT P6SM BKN015 OVC020
     FM220300 18006KT 5SM BR SCT006 BKN012=

USA.gov is the U.S. government's official web portal to all federal, state and local government web resources and services.